createdAt,value
2023-04-05T00:01:56.190Z,8.90
2023-04-05T00:04:24.130Z,7.47
2023-04-05T00:06:53.008Z,9.23
2023-04-05T00:09:21.108Z,6.67
2023-04-05T00:11:49.178Z,7.87
2023-04-05T00:14:16.473Z,6.93
2023-04-05T00:16:43.929Z,7.47
2023-04-05T00:19:15.392Z,7.90
2023-04-05T00:21:42.701Z,10.47
2023-04-05T00:24:15.841Z,9.10
2023-04-05T00:26:44.194Z,9.60
2023-04-05T00:29:11.583Z,9.00
2023-04-05T00:31:38.971Z,10.40
2023-04-05T00:34:09.169Z,8.53
2023-04-05T00:36:36.541Z,6.93
2023-04-05T00:39:03.966Z,7.73
2023-04-05T00:41:31.267Z,8.57
2023-04-05T00:44:00.036Z,10.57
2023-04-05T00:46:28.486Z,7.07
2023-04-05T00:48:56.645Z,7.70
2023-04-05T00:51:24.378Z,7.73
2023-04-05T00:53:53.143Z,10.33
2023-04-05T00:56:21.819Z,9.80
2023-04-05T00:58:52.165Z,8.80
2023-04-05T01:01:20.663Z,8.50
2023-04-05T01:03:52.345Z,8.90
2023-04-05T01:06:32.005Z,10.23
2023-04-05T01:09:17.699Z,7.93
2023-04-05T01:11:46.415Z,8.10
2023-04-05T01:14:13.754Z,8.07
2023-04-05T01:16:41.150Z,9.00
2023-04-05T01:19:10.336Z,9.57
2023-04-05T01:21:38.108Z,7.50
2023-04-05T01:24:25.300Z,7.53
2023-04-05T01:26:58.834Z,12.53
2023-04-05T01:29:29.566Z,8.50
2023-04-05T01:31:56.925Z,8.23
2023-04-05T01:34:34.904Z,7.43
2023-04-05T01:37:03.935Z,8.07
2023-04-05T01:39:32.029Z,9.13
2023-04-05T01:42:03.081Z,9.07
2023-04-05T01:44:30.676Z,9.77
2023-04-05T01:46:58.602Z,9.17
2023-04-05T01:49:25.886Z,8.97
2023-04-05T01:51:53.218Z,7.77
2023-04-05T01:54:20.466Z,8.07
2023-04-05T01:56:47.829Z,10.00
2023-04-05T01:59:15.408Z,9.27
2023-04-05T02:01:42.690Z,9.57
2023-04-05T02:04:10.047Z,11.20
2023-04-05T02:06:37.355Z,8.67
2023-04-05T02:09:04.773Z,9.83
2023-04-05T02:11:32.123Z,9.63
2023-04-05T02:13:59.580Z,10.60
2023-04-05T02:16:27.329Z,9.17
2023-04-05T02:18:58.027Z,7.20
2023-04-05T02:21:26.336Z,8.93
2023-04-05T02:23:56.735Z,10.23
2023-04-05T02:26:24.222Z,8.00
2023-04-05T02:28:51.710Z,10.97
2023-04-05T02:31:19.228Z,10.83
2023-04-05T02:33:46.735Z,9.43
2023-04-05T02:36:14.481Z,13.00
2023-04-05T02:38:41.993Z,8.67
2023-04-05T02:41:11.781Z,11.90
2023-04-05T02:43:39.522Z,9.63
2023-04-05T02:46:06.941Z,8.63
2023-04-05T02:48:34.285Z,9.17
2023-04-05T02:51:01.651Z,8.00
2023-04-05T02:53:28.973Z,9.07
2023-04-05T02:55:57.347Z,11.30
2023-04-05T02:58:25.272Z,7.97
2023-04-05T03:00:54.520Z,7.47
2023-04-05T03:03:22.428Z,10.67
2023-04-05T03:05:50.314Z,9.03
2023-04-05T03:08:23.733Z,8.00
2023-04-05T03:10:55.057Z,8.37
2023-04-05T03:13:22.332Z,7.30
2023-04-05T03:15:49.586Z,7.50
2023-04-05T03:18:16.964Z,8.67
2023-04-05T03:20:45.950Z,11.60
2023-04-05T03:23:13.301Z,12.73
2023-04-05T03:25:42.100Z,13.63
2023-04-05T03:28:09.537Z,9.63
2023-04-05T03:30:37.057Z,10.33
2023-04-05T03:33:04.483Z,25.93
2023-04-05T03:35:31.921Z,25.47
2023-04-05T03:37:59.410Z,13.80
2023-04-05T03:40:26.672Z,9.00
2023-04-05T03:42:54.030Z,10.60
2023-04-05T03:45:24.345Z,11.33
2023-04-05T03:47:52.226Z,10.83
2023-04-05T03:50:19.625Z,10.87
2023-04-05T03:52:47.306Z,14.20
2023-04-05T03:55:16.951Z,11.33
2023-04-05T03:57:44.271Z,9.73
2023-04-05T04:00:15.357Z,11.83
2023-04-05T04:02:43.988Z,10.63
2023-04-05T04:05:12.114Z,20.83
2023-04-05T04:07:39.603Z,53.07
2023-04-05T04:10:07.465Z,72.40
2023-04-05T04:12:34.732Z,47.33
2023-04-05T04:15:02.334Z,39.00
2023-04-05T04:17:37.365Z,35.97
2023-04-05T04:20:11.367Z,20.40
2023-04-05T04:22:40.462Z,11.70
2023-04-05T04:25:12.807Z,9.37
2023-04-05T04:27:42.270Z,10.90
2023-04-05T04:30:10.590Z,10.40
2023-04-05T04:32:54.693Z,9.60
2023-04-05T04:35:25.348Z,9.13
2023-04-05T04:38:05.866Z,11.43
2023-04-05T04:40:40.625Z,11.83
2023-04-05T04:43:17.607Z,11.03
2023-04-05T04:45:49.087Z,8.17
2023-04-05T04:48:16.960Z,10.30
2023-04-05T04:50:44.854Z,16.20
2023-04-05T04:53:13.725Z,17.67
2023-04-05T04:55:44.616Z,13.93
2023-04-05T04:58:12.989Z,14.23
2023-04-05T05:00:41.041Z,16.57
2023-04-05T05:03:11.554Z,19.53
2023-04-05T05:05:46.907Z,18.77
2023-04-05T05:08:14.564Z,18.73
2023-04-05T05:10:42.323Z,13.37
2023-04-05T05:13:11.229Z,17.73
2023-04-05T05:15:41.885Z,14.13
2023-04-05T05:18:09.352Z,10.13
2023-04-05T05:20:37.590Z,10.90
2023-04-05T05:23:05.502Z,8.87
2023-04-05T05:25:33.101Z,9.47
2023-04-05T05:28:00.379Z,11.13
2023-04-05T05:30:28.845Z,10.77
2023-04-05T05:32:58.051Z,9.90
2023-04-05T05:35:25.697Z,11.50
2023-04-05T05:37:53.002Z,9.93
2023-04-05T05:40:20.378Z,9.70
2023-04-05T05:42:47.627Z,9.33
2023-04-05T05:45:14.943Z,9.20
2023-04-05T05:47:42.889Z,10.97
2023-04-05T05:50:11.307Z,13.93
2023-04-05T05:52:39.342Z,9.97
2023-04-05T05:55:07.333Z,10.87
2023-04-05T05:57:34.970Z,11.43
2023-04-05T06:00:02.409Z,10.00
2023-04-05T06:02:30.179Z,12.57
2023-04-05T06:04:58.350Z,12.73
2023-04-05T06:07:25.912Z,12.53
2023-04-05T06:09:53.296Z,13.43
2023-04-05T06:12:23.920Z,13.73
2023-04-05T06:14:51.428Z,14.47
2023-04-05T06:17:18.924Z,24.20
2023-04-05T06:19:46.522Z,39.67
2023-04-05T06:22:13.805Z,31.97
2023-04-05T06:24:41.158Z,16.30
2023-04-05T06:27:08.647Z,13.27
2023-04-05T06:29:36.256Z,14.77
2023-04-05T06:32:10.560Z,11.70
2023-04-05T06:34:38.174Z,9.70
2023-04-05T06:37:06.311Z,12.40
2023-04-05T06:39:33.653Z,10.40
2023-04-05T06:42:01.700Z,7.67
2023-04-05T06:44:29.306Z,8.83
2023-04-05T06:46:56.691Z,8.87
2023-04-05T06:49:23.983Z,8.00
2023-04-05T06:51:51.320Z,8.07
2023-04-05T06:54:18.569Z,7.57
2023-04-05T06:56:46.141Z,8.10
2023-04-05T06:59:13.531Z,9.40
2023-04-05T07:01:40.968Z,6.43
2023-04-05T07:04:08.373Z,6.40
2023-04-05T07:06:39.106Z,6.70
2023-04-05T07:09:06.492Z,6.00
2023-04-05T07:11:34.055Z,10.13
2023-04-05T07:14:01.494Z,6.60
2023-04-05T07:16:28.845Z,6.63
2023-04-05T07:18:57.910Z,7.97
2023-04-05T07:21:25.359Z,6.30
2023-04-05T07:23:53.754Z,6.17
2023-04-05T07:26:22.499Z,6.17
2023-04-05T07:28:49.794Z,6.50
2023-04-05T07:31:17.567Z,10.80
2023-04-05T07:33:44.931Z,6.67
2023-04-05T07:36:12.271Z,6.30
2023-04-05T07:38:39.528Z,7.07
2023-04-05T07:41:06.884Z,6.33
2023-04-05T07:43:34.216Z,6.27
2023-04-05T07:46:04.963Z,7.50
2023-04-05T07:48:32.460Z,6.70
2023-04-05T07:51:07.414Z,6.47
2023-04-05T07:53:35.000Z,8.00
2023-04-05T07:56:08.693Z,7.57
2023-04-05T07:58:36.438Z,6.60
2023-04-05T08:01:04.640Z,6.57
2023-04-05T08:03:32.647Z,7.13
2023-04-05T08:05:59.922Z,7.03
2023-04-05T08:08:27.227Z,16.00
2023-04-05T08:10:54.845Z,9.40
2023-04-05T08:13:22.192Z,8.00
2023-04-05T08:15:49.746Z,7.83
2023-04-05T08:18:17.021Z,6.60
2023-04-05T08:20:44.361Z,7.00
2023-04-05T08:23:11.847Z,5.67
2023-04-05T08:25:41.290Z,5.67
2023-04-05T08:28:09.885Z,6.43
2023-04-05T08:30:37.139Z,10.33
2023-04-05T08:33:04.905Z,6.60
2023-04-05T08:35:32.471Z,5.63
2023-04-05T08:37:59.792Z,6.33
2023-04-05T08:40:34.012Z,6.17
2023-04-05T08:43:06.878Z,8.43
2023-04-05T08:45:35.072Z,6.37
2023-04-05T08:48:02.494Z,5.63
2023-04-05T08:50:29.954Z,5.67
2023-04-05T08:52:57.166Z,4.97
2023-04-05T08:55:25.079Z,6.10
2023-04-05T08:57:54.556Z,5.27
2023-04-05T09:00:21.920Z,7.33
2023-04-05T09:02:51.918Z,5.50
2023-04-05T09:05:21.156Z,5.63
2023-04-05T09:07:48.809Z,6.60
2023-04-05T09:10:16.833Z,6.17
2023-04-05T09:12:44.082Z,6.07
2023-04-05T09:15:12.304Z,6.37
2023-04-05T09:17:40.564Z,6.43
2023-04-05T09:20:08.182Z,6.50
2023-04-05T09:22:45.964Z,6.53
2023-04-05T09:25:13.876Z,6.80
2023-04-05T09:27:56.793Z,6.93
2023-04-05T09:30:24.385Z,5.37
2023-04-05T09:32:52.991Z,7.73
2023-04-05T09:35:20.488Z,7.03
2023-04-05T09:37:56.662Z,6.43
2023-04-05T09:40:24.582Z,8.10
2023-04-05T09:42:54.010Z,5.43
2023-04-05T09:45:22.484Z,5.23
2023-04-05T09:47:57.479Z,6.67
2023-04-05T09:50:25.175Z,4.83
2023-04-05T09:52:53.038Z,5.13
2023-04-05T09:55:28.297Z,5.63
2023-04-05T09:57:56.028Z,5.27
2023-04-05T10:00:24.290Z,5.47
2023-04-05T10:02:55.574Z,15.80
2023-04-05T10:05:27.784Z,7.37
2023-04-05T10:07:55.956Z,5.67
2023-04-05T10:10:24.064Z,5.33
2023-04-05T10:12:51.761Z,6.37
2023-04-05T10:15:19.246Z,7.17
2023-04-05T10:18:07.853Z,6.60
2023-04-05T10:20:40.626Z,5.80
2023-04-05T10:23:10.227Z,6.27
2023-04-05T10:25:43.700Z,6.43
2023-04-05T10:28:11.127Z,6.00
2023-04-05T10:30:43.183Z,5.47
2023-04-05T10:33:23.143Z,9.20
2023-04-05T10:35:53.412Z,6.07
2023-04-05T10:38:27.497Z,8.50
2023-04-05T10:41:06.847Z,6.50
2023-04-05T10:43:35.495Z,5.90
2023-04-05T10:46:03.589Z,5.63
2023-04-05T10:48:50.011Z,5.63
2023-04-05T10:51:17.296Z,5.57
2023-04-05T10:53:44.840Z,6.20
2023-04-05T10:56:13.084Z,7.93
2023-04-05T10:58:42.444Z,5.47
2023-04-05T11:01:10.621Z,8.40
2023-04-05T11:03:50.924Z,5.37
2023-04-05T11:06:21.404Z,5.80
2023-04-05T11:08:49.284Z,5.60
2023-04-05T11:11:17.681Z,8.57
2023-04-05T11:13:52.091Z,5.63
2023-04-05T11:16:19.962Z,5.73
2023-04-05T11:18:48.139Z,6.30
2023-04-05T11:21:25.793Z,6.23
2023-04-05T11:24:12.082Z,7.07
2023-04-05T11:26:45.815Z,5.90
2023-04-05T11:29:13.097Z,6.87
2023-04-05T11:32:02.179Z,6.23
2023-04-05T11:34:29.427Z,7.20
2023-04-05T11:36:56.684Z,6.73
2023-04-05T11:39:24.541Z,6.60
2023-04-05T11:42:01.464Z,5.70
2023-04-05T11:44:29.601Z,5.90
2023-04-05T11:46:56.899Z,5.07
2023-04-05T11:49:25.181Z,9.80
2023-04-05T11:51:53.401Z,6.67
2023-04-05T11:54:34.061Z,6.83
2023-04-05T11:57:02.343Z,5.37
2023-04-05T11:59:33.947Z,5.50
2023-04-05T12:02:06.457Z,7.07
2023-04-05T12:04:33.787Z,5.67
2023-04-05T12:07:16.821Z,6.90
2023-04-05T12:09:59.295Z,6.93
2023-04-05T12:12:26.825Z,6.27
2023-04-05T12:15:00.523Z,5.83
2023-04-05T12:17:41.549Z,5.73
2023-04-05T12:20:09.622Z,6.57
2023-04-05T12:22:41.483Z,6.37
2023-04-05T12:25:09.098Z,5.90
2023-04-05T12:27:36.558Z,6.60
2023-04-05T12:30:14.899Z,6.43
2023-04-05T12:32:43.210Z,6.93
2023-04-05T12:35:14.607Z,6.30
2023-04-05T12:37:41.947Z,6.30
2023-04-05T12:40:10.036Z,5.93
2023-04-05T12:42:38.490Z,7.47
2023-04-05T12:45:07.090Z,6.20
2023-04-05T12:47:35.999Z,7.07
2023-04-05T12:50:13.570Z,6.53
2023-04-05T12:52:52.271Z,6.70
2023-04-05T12:55:21.650Z,6.77
2023-04-05T12:57:53.364Z,5.53
2023-04-05T13:00:24.587Z,5.60
2023-04-05T13:02:53.806Z,5.53
2023-04-05T13:05:22.354Z,7.50
2023-04-05T13:07:49.708Z,6.57
2023-04-05T13:10:17.145Z,5.53
2023-04-05T13:12:46.108Z,6.07
2023-04-05T13:15:14.494Z,5.87
2023-04-05T13:17:42.634Z,5.80
2023-04-05T13:20:10.667Z,5.47
2023-04-05T13:22:38.398Z,6.67
2023-04-05T13:25:06.186Z,7.17
2023-04-05T13:27:33.488Z,5.93
2023-04-05T13:30:00.928Z,10.87
2023-04-05T13:32:28.532Z,5.60
2023-04-05T13:34:55.923Z,5.27
2023-04-05T13:37:23.315Z,5.60
2023-04-05T13:39:50.823Z,5.57
2023-04-05T13:42:18.310Z,5.40
2023-04-05T13:44:45.573Z,6.00
2023-04-05T13:47:15.185Z,5.40
2023-04-05T13:49:43.066Z,5.43
2023-04-05T13:52:10.842Z,4.77
2023-04-05T13:54:38.497Z,5.60
2023-04-05T13:57:05.932Z,5.43
2023-04-05T13:59:33.313Z,5.37
2023-04-05T14:02:00.954Z,5.13
2023-04-05T14:04:29.011Z,4.67
2023-04-05T14:06:56.417Z,6.00
2023-04-05T14:09:23.735Z,5.93
2023-04-05T14:11:50.935Z,5.30
2023-04-05T14:14:18.375Z,5.53
2023-04-05T14:16:46.083Z,5.30
2023-04-05T14:19:13.517Z,5.80
2023-04-05T14:21:41.014Z,7.03
2023-04-05T14:24:08.949Z,5.50
2023-04-05T14:26:36.609Z,8.10
2023-04-05T14:29:03.976Z,5.00
2023-04-05T14:31:31.398Z,5.70
2023-04-05T14:33:59.851Z,5.90
2023-04-05T14:36:27.292Z,5.23
2023-04-05T14:38:54.506Z,5.87
2023-04-05T14:41:21.880Z,5.93
2023-04-05T14:43:49.225Z,5.97
2023-04-05T14:46:16.602Z,5.73
2023-04-05T14:48:44.006Z,6.33
2023-04-05T14:51:11.486Z,5.83
2023-04-05T14:53:38.920Z,5.90
2023-04-05T14:56:06.649Z,6.07
2023-04-05T14:58:34.404Z,7.73
2023-04-05T15:01:01.921Z,5.50
2023-04-05T15:03:31.053Z,6.73
2023-04-05T15:05:59.054Z,5.80
2023-04-05T15:08:26.453Z,5.80
2023-04-05T15:10:54.003Z,6.40
2023-04-05T15:13:21.943Z,7.13
2023-04-05T15:15:49.268Z,6.93
2023-04-05T15:18:16.589Z,6.13
2023-04-05T15:20:44.760Z,6.07
2023-04-05T15:23:12.199Z,5.60
2023-04-05T15:25:39.629Z,5.70
2023-04-05T15:28:07.704Z,5.77
2023-04-05T15:30:39.739Z,7.57
2023-04-05T15:33:07.362Z,7.37
2023-04-05T15:35:37.738Z,6.17
2023-04-05T15:38:05.892Z,5.90
2023-04-05T15:40:33.373Z,5.97
2023-04-05T15:43:00.878Z,12.00
2023-04-05T15:45:28.761Z,6.37
2023-04-05T15:47:56.535Z,6.63
2023-04-05T15:50:23.996Z,6.93
2023-04-05T15:52:51.599Z,6.47
2023-04-05T15:55:19.184Z,6.47
2023-04-05T15:57:46.767Z,5.67
2023-04-05T16:00:14.324Z,6.40
2023-04-05T16:02:42.194Z,7.27
2023-04-05T16:05:09.875Z,7.03
2023-04-05T16:07:37.628Z,5.30
2023-04-05T16:10:07.054Z,6.40
2023-04-05T16:12:34.658Z,5.97
2023-04-05T16:15:02.045Z,7.13
2023-04-05T16:17:29.807Z,5.40
2023-04-05T16:19:57.516Z,6.13
2023-04-05T16:22:25.974Z,6.67
2023-04-05T16:24:53.445Z,6.47
2023-04-05T16:27:21.305Z,6.57
2023-04-05T16:29:49.426Z,10.83
2023-04-05T16:32:17.803Z,7.00
2023-04-05T16:34:45.664Z,9.07
2023-04-05T16:37:13.088Z,9.97
2023-04-05T16:39:40.666Z,7.10
2023-04-05T16:42:08.280Z,13.60
2023-04-05T16:44:36.030Z,11.37
2023-04-05T16:47:03.538Z,7.20
2023-04-05T16:49:31.104Z,8.37
2023-04-05T16:51:58.474Z,8.97
2023-04-05T16:54:26.046Z,7.30
2023-04-05T16:56:53.321Z,6.67
2023-04-05T16:59:20.735Z,7.70
2023-04-05T17:01:48.378Z,8.27
2023-04-05T17:04:16.118Z,6.90
2023-04-05T17:06:43.566Z,6.60
2023-04-05T17:09:11.000Z,7.47
2023-04-05T17:11:38.420Z,6.80
2023-04-05T17:14:06.779Z,9.37
2023-04-05T17:16:34.115Z,13.43
2023-04-05T17:19:01.680Z,7.83
2023-04-05T17:21:29.450Z,15.57
2023-04-05T17:23:56.857Z,7.90
2023-04-05T17:26:24.400Z,8.80
2023-04-05T17:28:52.236Z,8.77
2023-04-05T17:31:19.643Z,10.07
2023-04-05T17:33:48.816Z,8.40
2023-04-05T17:36:17.470Z,8.70
2023-04-05T17:38:45.026Z,12.63
2023-04-05T17:41:12.380Z,9.13
2023-04-05T17:43:39.766Z,12.07
2023-04-05T17:46:09.347Z,9.73
2023-04-05T17:48:36.841Z,12.80
2023-04-05T17:51:07.970Z,13.47
2023-04-05T17:53:35.535Z,16.40
2023-04-05T17:56:03.396Z,9.07
2023-04-05T17:58:32.404Z,9.83
2023-04-05T18:01:00.345Z,9.80
2023-04-05T18:03:28.022Z,18.23
2023-04-05T18:05:56.012Z,11.73
2023-04-05T18:08:26.590Z,11.33
2023-04-05T18:10:58.104Z,19.97
2023-04-05T18:13:26.054Z,46.80
2023-04-05T18:15:57.566Z,134.30
2023-04-05T18:18:25.532Z,23.53
2023-04-05T18:20:53.318Z,11.93
2023-04-05T18:23:27.538Z,10.30
2023-04-05T18:25:55.877Z,9.60
2023-04-05T18:28:23.857Z,8.17
2023-04-05T18:30:51.848Z,10.73
2023-04-05T18:33:19.860Z,9.60
2023-04-05T18:35:50.975Z,10.33
2023-04-05T18:38:18.728Z,12.83
2023-04-05T18:40:46.214Z,12.37
2023-04-05T18:43:13.831Z,11.70
2023-04-05T18:45:41.220Z,12.37
2023-04-05T18:48:09.013Z,10.23
2023-04-05T18:50:36.849Z,11.20
2023-04-05T18:53:04.574Z,8.70
2023-04-05T18:55:32.099Z,8.93
2023-04-05T18:57:59.713Z,12.17
2023-04-05T19:00:27.197Z,15.27
2023-04-05T19:02:55.011Z,16.03
2023-04-05T19:05:22.452Z,18.77
2023-04-05T19:07:49.791Z,26.50
2023-04-05T19:10:17.402Z,47.90
2023-04-05T19:12:44.894Z,55.70
2023-04-05T19:15:12.664Z,49.90
2023-04-05T19:17:40.099Z,34.20
2023-04-05T19:20:07.825Z,29.87
2023-04-05T19:22:35.395Z,26.07
2023-04-05T19:25:02.819Z,31.00
2023-04-05T19:27:33.054Z,31.40
2023-04-05T19:30:00.534Z,17.50
2023-04-05T19:32:28.229Z,19.50
2023-04-05T19:34:55.823Z,16.27
2023-04-05T19:37:23.284Z,16.00
2023-04-05T19:39:50.777Z,15.73
2023-04-05T19:42:18.694Z,15.37
2023-04-05T19:44:49.611Z,15.40
2023-04-05T19:47:18.386Z,15.50
2023-04-05T19:49:46.089Z,16.10
2023-04-05T19:52:14.869Z,14.43
2023-04-05T19:54:44.473Z,14.13
2023-04-05T19:57:14.634Z,12.83
2023-04-05T19:59:42.236Z,13.10
2023-04-05T20:02:20.023Z,18.73
2023-04-05T20:04:48.650Z,16.30
2023-04-05T20:07:17.037Z,11.90
2023-04-05T20:09:44.979Z,13.10
2023-04-05T20:12:13.698Z,10.87
2023-04-05T20:14:42.854Z,11.60
2023-04-05T20:17:13.028Z,8.97
2023-04-05T20:19:41.528Z,11.07
2023-04-05T20:22:09.778Z,10.23
2023-04-05T20:24:40.204Z,12.10
2023-04-05T20:27:07.831Z,19.23
2023-04-05T20:29:36.431Z,21.97
2023-04-05T20:32:04.816Z,27.90
2023-04-05T20:34:33.614Z,24.37
2023-04-05T20:37:02.084Z,28.37
2023-04-05T20:39:30.483Z,14.50
2023-04-05T20:41:57.984Z,11.03
2023-04-05T20:44:26.034Z,9.13
2023-04-05T20:46:58.089Z,10.83
2023-04-05T20:49:26.482Z,12.17
2023-04-05T20:51:58.012Z,9.83
2023-04-05T20:54:26.031Z,9.57
2023-04-05T20:56:53.403Z,14.90
2023-04-05T20:59:21.107Z,12.70
2023-04-05T21:01:49.446Z,19.70
2023-04-05T21:04:16.887Z,17.60
2023-04-05T21:06:44.980Z,12.70
2023-04-05T21:09:12.475Z,21.90
2023-04-05T21:11:40.019Z,12.83
2023-04-05T21:14:07.513Z,12.57
2023-04-05T21:16:35.068Z,18.33
2023-04-05T21:19:02.647Z,20.17
2023-04-05T21:21:30.057Z,20.73
2023-04-05T21:23:57.505Z,19.23
2023-04-05T21:26:25.081Z,20.60
2023-04-05T21:28:52.794Z,18.07
2023-04-05T21:31:20.245Z,19.73
2023-04-05T21:33:47.661Z,28.90
2023-04-05T21:36:15.392Z,24.50
2023-04-05T21:38:42.724Z,26.13
2023-04-05T21:41:10.096Z,20.50
2023-04-05T21:43:38.049Z,21.53
2023-04-05T21:46:05.487Z,23.40
2023-04-05T21:48:32.842Z,14.90
2023-04-05T21:51:00.365Z,10.73
2023-04-05T21:53:27.824Z,9.83
2023-04-05T21:55:58.313Z,11.97
2023-04-05T21:58:26.530Z,14.93
2023-04-05T22:00:53.921Z,21.10
2023-04-05T22:03:21.528Z,19.37
2023-04-05T22:05:49.181Z,15.03
2023-04-05T22:08:17.542Z,9.30
2023-04-05T22:10:45.124Z,12.43
2023-04-05T22:13:12.408Z,12.47
2023-04-05T22:15:39.884Z,11.77
2023-04-05T22:18:07.572Z,10.53
2023-04-05T22:20:35.214Z,10.90
2023-04-05T22:23:02.628Z,16.73
2023-04-05T22:25:30.105Z,22.83
2023-04-05T22:28:00.167Z,13.23
2023-04-05T22:30:28.768Z,11.00
2023-04-05T22:32:57.046Z,9.57
2023-04-05T22:35:24.513Z,9.67
2023-04-05T22:37:51.925Z,17.03
2023-04-05T22:40:19.577Z,19.63
2023-04-05T22:42:47.063Z,18.10
2023-04-05T22:45:14.541Z,17.63
2023-04-05T22:47:42.037Z,12.77
2023-04-05T22:50:09.808Z,17.23
2023-04-05T22:52:37.590Z,23.23
2023-04-05T22:55:05.716Z,16.00
2023-04-05T22:57:33.369Z,17.73
2023-04-05T23:00:00.779Z,17.87
2023-04-05T23:02:29.694Z,23.33
2023-04-05T23:04:57.779Z,16.00
2023-04-05T23:07:25.591Z,15.43
2023-04-05T23:09:53.200Z,18.77
2023-04-05T23:12:21.147Z,16.20
2023-04-05T23:14:48.779Z,21.30
2023-04-05T23:17:16.384Z,24.33
2023-04-05T23:19:43.880Z,23.50
2023-04-05T23:22:11.616Z,19.20
2023-04-05T23:24:39.162Z,16.20
2023-04-05T23:27:07.033Z,21.00
2023-04-05T23:29:34.547Z,16.27
2023-04-05T23:32:01.996Z,13.73
2023-04-05T23:34:29.420Z,9.67
2023-04-05T23:36:56.945Z,11.23
2023-04-05T23:39:24.455Z,13.53
2023-04-05T23:41:52.010Z,11.17
2023-04-05T23:44:19.461Z,15.00
2023-04-05T23:46:46.829Z,14.43
2023-04-05T23:49:14.218Z,10.47
2023-04-05T23:51:42.288Z,10.80
2023-04-05T23:54:10.227Z,12.33
2023-04-05T23:56:38.218Z,12.83
2023-04-05T23:59:06.367Z,9.60
